Aviation Digital Data Service (ADDS)

Output produced by METARs form (1839 UTC 18 June 2019)
found at http://www.aviationweather.gov/metar/data/
 
RCTP 181800Z 22006KT 9999 FEW020 BKN200 28/26 Q1008 NOSIG RMK A2977
TAF RCTP 181700Z 1818/1924 24010KT 9999 FEW020 BKN150 
     TEMPO 1818/1824 25005KT 
     TEMPO 1900/1906 26015KT FEW015 BKN032 BKN080 
     TEMPO 1906/1912 25015KT
       
RCMQ 181800Z 19006KT 9999 FEW012 SCT120 26/24 Q1010 RMK A2983 RVR N/A
TAF RCMQ 181700Z 1818/1918 21008KT 9999 FEW012 BKN120 TX32/1906Z TN25/1821Z 
     BECMG 1823/1902 23004KT FEW012 SCT040 
     BECMG 1903/1906 18008KT FEW012 BKN060 
     BECMG 1915/1917 22004KT FEW012 SCT050
       
TAF RCFN 181700Z 1818/1918 35005KT 9999 FEW020 BKN032 
     TEMPO 1904/1910 09005KT
       
RCKH 181800Z 07005KT 9999 FEW016 SCT250 28/26 Q1009 NOSIG RMK A2982
TAF RCKH 181700Z 1818/1924 07005KT 9999 FEW015 
     TEMPO 1820/1902 01005KT FEW012 BKN025 BKN060 
     BECMG 1902/1904 28005KT 
     TEMPO 1904/1910 27010KT FEW015 BKN032 BKN080 
     BECMG 1912/1914 35005KT
       
RCSS 181800Z 25004KT 230V290 9999 FEW025 BKN180 29/25 Q1007 NOSIG RMK A2976
TAF RCSS 181700Z 1818/1918 30005KT 9999 FEW020 BKN032 
     TEMPO 1900/1905 27010KT 
     TEMPO 1905/1909 27010KT FEW015 BKN022 BKN080
       
RCNN 181800Z 12003KT 9999 FEW012 SCT060 25/23 Q1009 RMK A2981
TAF RCNN 181700Z 1818/1918 18004KT 9999 FEW012 SCT100 TX32/1906Z TN24/1820Z 
     BECMG 1901/1904 23010KT FEW010 BKN080 
     BECMG 1906/1909 FEW010 BKN050 
     BECMG 1912/1915 18004KT FEW012 SCT080